Time;durP1;ratioP1;P1;durP2;ratioP2;P2;SDS_P1;SDS_P2;PMS_P1;PMS_P2;Temp;Humidity;BMP_temperature;BMP_pressure;BME280_temperature;BME280_humidity;BME280_pressure;Samples;Min_cycle;Max_cycle;Signal;HPM_P1;HPM_P2
2024/02/14 03:46:00;;;;;;;;;;;3.40;1.00;;;;;;6058519;22;20107;-82
2024/02/14 03:48:27;;;;;;;;;;;;;;;;;;5078336;28;19939;-82
2024/02/14 03:50:55;;;;;;;;;;;;;;;;;;5074667;28;19980;-85
2024/02/14 03:53:22;;;;;;;;;;;;;;;;;;5067074;28;20479;-84
2024/02/14 03:55:52;;;;;;;;;;;;;;;;;;5061323;28;20498;-84
2024/02/14 03:58:22;;;;;;;;;;;3.50;99.90;;;;;;5061521;28;20383;-84
2024/02/14 04:00:50;;;;;;;;;;;3.60;99.90;;;;;;5061953;28;19993;-84
2024/02/14 04:03:17;;;;;;;;;;;;;;;;;;5061652;28;19962;-83
2024/02/14 04:05:45;;;;;;;;;;;;;;;;;;5061296;28;20039;-84
2024/02/14 04:08:12;;;;;;;;;;;;;;;;;;5064067;28;19945;-84
2024/02/14 04:10:39;;;;;;;;;;;;;;;;;;5061522;28;19942;-84
2024/02/14 04:13:06;;;;;;;;;;;;;;;;;;5066394;28;19945;-84
2024/02/14 04:15:33;;;;;;;;;;;;;;;;;;5074939;28;19949;-85
2024/02/14 04:18:02;;;;;;;;;;;;;;;;;;5078557;28;20027;-83
2024/02/14 04:20:30;;;;;;;;;;;;;;;;;;5068513;28;20295;-84
2024/02/14 04:22:59;;;;;;;;;;;;;;;;;;5066709;28;19955;-84
2024/02/14 04:25:27;;;;;;;;;;;;;;;;;;5063264;28;19953;-83
2024/02/14 04:27:55;;;;;;;;;;;;;;;;;;5072171;28;19956;-84
2024/02/14 04:30:26;;;;;;;;;;;3.90;1.00;;;;;;5073214;28;19952;-84
2024/02/14 04:32:52;;;;;;;;;;;3.70;1.00;;;;;;5061701;28;20391;-84
2024/02/14 04:35:21;;;;;;;;;;;;;;;;;;5062601;28;19950;-84
2024/02/14 04:37:48;;;;;;;;;;;3.30;1.00;;;;;;5062587;28;19993;-83
2024/02/14 04:40:15;;;;;;;;;;;3.70;1.00;;;;;;5062363;28;19944;-84
2024/02/14 04:42:43;;;;;;;;;;;;;;;;;;5063969;28;19959;-84
2024/02/14 04:45:11;;;;;;;;;;;3.60;1.00;;;;;;5067387;28;20292;-84
2024/02/14 04:47:39;;;;;;;;;;;3.60;1.00;;;;;;5062622;28;20012;-84
2024/02/14 04:50:05;;;;;;;;;;;3.60;1.00;;;;;;5061353;28;19982;-83
2024/02/14 04:52:35;;;;;;;;;;;;;;;;;;5059043;28;20451;-84
2024/02/14 04:55:04;;;;;;;;;;;;;;;;;;5060039;28;20042;-83
2024/02/14 04:57:35;;;;;;;;;;;;;;;;;;5069973;28;19965;-83
2024/02/14 05:00:04;;;;;;;;;;;;;;;;;;5068417;28;20277;-85
2024/02/14 05:02:32;;;;;;;;;;;;;;;;;;5063936;28;19954;-84
2024/02/14 05:05:05;;;;;;;;;;;;;;;;;;5065847;28;19966;-85
2024/02/14 05:07:34;;;;;;;;;;;;;;;;;;5068846;28;19957;-85
2024/02/14 05:10:01;;;;;;;;;;;;;;;;;;5068131;28;19963;-85
2024/02/14 05:12:29;;;;;;;;;;;;;;;;;;5061813;28;19983;-85
2024/02/14 05:14:57;;;;;;;;;;;;;;;;;;5059974;28;19967;-85
2024/02/14 05:17:25;;;;;;;;;;;;;;;;;;5059750;28;19972;-83
2024/02/14 05:19:56;;;;;;;;;;;3.70;1.00;;;;;;5060237;28;19997;-84
2024/02/14 05:22:24;;;;;;;;;;;;;;;;;;5060678;28;19969;-84
2024/02/14 05:24:51;;;;;;;;;;;;;;;;;;5060681;28;20336;-84
2024/02/14 05:27:19;;;;;;;;;;;;;;;;;;5069875;28;20026;-83
2024/02/14 05:29:47;;;;;;;;;;;;;;;;;;5066999;28;19943;-83
2024/02/14 05:32:16;;;;;;;;;;;;;;;;;;5061303;28;20042;-84
2024/02/14 05:34:45;;;;;;;;;;;;;;;;;;5070260;28;19948;-84
2024/02/14 05:37:13;;;;;;;;;;;;;;;;;;5058569;28;19972;-84
2024/02/14 05:39:41;;;;;;;;;;;;;;;;;;5070599;28;19939;-82
2024/02/14 05:42:09;;;;;;;;;;;;;;;;;;5079452;28;19954;-84
2024/02/14 05:44:37;;;;;;;;;;;;;;;;;;5073816;28;20015;-84
2024/02/14 05:47:05;;;;;;;;;;;;;;;;;;5073634;28;19990;-84
2024/02/14 05:49:33;;;;;;;;;;;;;;;;;;5073129;28;19983;-84
2024/02/14 05:52:01;;;;;;;;;;;;;;;;;;5071561;28;19943;-83
2024/02/14 05:54:28;;;;;;;;;;;;;;;;;;5070122;28;19970;-84
2024/02/14 05:56:57;;;;;;;;;;;;;;;;;;5070278;28;20023;-83
2024/02/14 05:59:26;;;;;;;;;;;;;;;;;;5062113;28;19939;-85
2024/02/14 06:01:54;;;;;;;;;;;;;;;;;;5062014;28;19998;-85
2024/02/14 06:04:23;;;;;;;;;;;;;;;;;;5070672;28;19998;-84
2024/02/14 06:06:51;;;;;;;;;;;;;;;;;;5076570;28;19987;-85
2024/02/14 06:09:19;;;;;;;;;;;;;;;;;;5065455;28;20038;-85
2024/02/14 06:11:48;;;;;;;;;;;;;;;;;;5060595;28;19950;-85
2024/02/14 06:14:15;;;;;;;;;;;;;;;;;;5061260;28;20011;-85
2024/02/14 06:16:44;;;;;;;;;;;;;;;;;;5061905;28;19969;-86
2024/02/14 06:19:14;;;;;;;;;;;4.10;99.90;;;;;;5062491;28;19984;-86
2024/02/14 06:21:43;;;;;;;;;;;;;;;;;;5060790;28;19952;-86
2024/02/14 06:24:13;;;;;;;;;;;4.10;1.00;;;;;;5068135;28;19954;-84
2024/02/14 06:26:42;;;;;;;;;;;4.30;1.00;;;;;;5075758;28;19965;-84
2024/02/14 06:29:11;;;;;;;;;;;4.20;1.00;;;;;;5074954;28;19945;-84
2024/02/14 06:31:38;;;;;;;;;;;4.10;1.00;;;;;;5073736;28;19941;-85
2024/02/14 06:34:08;;;;;;;;;;;3.50;1.00;;;;;;5073918;28;19975;-84
2024/02/14 06:36:37;;;;;;;;;;;4.20;1.00;;;;;;5076231;28;19941;-86
2024/02/14 06:39:03;;;;;;;;;;;4.30;1.00;;;;;;5076673;28;19930;-84
2024/02/14 06:41:36;;;;;;;;;;;4.70;1.00;;;;;;5066074;28;19942;-82
2024/02/14 06:44:02;;;;;;;;;;;4.30;1.00;;;;;;5067353;28;19921;-83
2024/02/14 06:46:29;;;;;;;;;;;4.30;1.00;;;;;;5070206;28;20009;-86
2024/02/14 06:48:57;;;;;;;;;;;4.40;1.00;;;;;;5062735;28;19950;-85
2024/02/14 06:51:24;;;;;;;;;;;4.20;1.00;;;;;;5063294;28;19942;-85
2024/02/14 06:53:52;;;;;;;;;;;4.60;1.00;;;;;;5064251;28;19969;-84
2024/02/14 06:56:20;;;;;;;;;;;4.40;99.90;;;;;;5064743;28;20011;-85
2024/02/14 06:58:52;;;;;;;;;;;;;;;;;;5064121;28;20357;-84
2024/02/14 07:01:22;;;;;;;;;;;;;;;;;;5060973;28;19992;-85
2024/02/14 07:03:49;;;;;;;;;;;;;;;;;;5062071;28;20024;-85
2024/02/14 07:06:18;;;;;;;;;;;;;;;;;;5063550;28;19966;-85
2024/02/14 07:08:44;;;;;;;;;;;4.50;99.90;;;;;;5062002;28;20010;-85
2024/02/14 07:11:12;;;;;;;;;;;4.60;99.90;;;;;;5065192;28;19927;-84
2024/02/14 07:13:40;;;;;;;;;;;;;;;;;;5066419;28;20147;-84
2024/02/14 07:16:08;;;;;;;;;;;;;;;;;;5067207;28;20027;-84
2024/02/14 07:18:36;;;;;;;;;;;;;;;;;;5065952;28;20422;-87
2024/02/14 07:21:05;;;;;;;;;;;4.70;1.00;;;;;;5068880;28;20038;-84
2024/02/14 07:23:32;;;;;;;;;;;4.70;1.00;;;;;;5067779;28;19998;-85
2024/02/14 07:25:59;;;;;;;;;;;4.80;1.00;;;;;;5066974;28;20061;-85
2024/02/14 07:28:26;;;;;;;;;;;4.80;1.00;;;;;;5066268;28;19974;-85
2024/02/14 07:30:53;;;;;;;;;;;4.90;1.00;;;;;;5066120;28;19996;-85
2024/02/14 07:33:20;;;;;;;;;;;4.90;1.00;;;;;;5064512;28;19997;-86
2024/02/14 07:35:48;;;;;;;;;;;5.00;1.00;;;;;;5064975;28;20045;-86
2024/02/14 07:38:16;;;;;;;;;;;4.90;1.00;;;;;;5066869;28;19944;-85
2024/02/14 07:40:43;;;;;;;;;;;;;;;;;;5068297;28;19944;-84
2024/02/14 07:43:11;;;;;;;;;;;;;;;;;;5071542;28;19944;-85
2024/02/14 07:45:41;;;;;;;;;;;5.10;1.00;;;;;;5066211;28;19960;-86
2024/02/14 07:48:09;;;;;;;;;;;5.10;1.00;;;;;;5065022;28;19961;-84
2024/02/14 07:50:39;;;;;;;;;;;5.10;1.00;;;;;;5065207;28;19960;-85
2024/02/14 07:53:06;;;;;;;;;;;5.20;1.00;;;;;;5063208;28;19995;-84
2024/02/14 07:55:32;;;;;;;;;;;5.20;1.00;;;;;;5064976;28;19947;-85
2024/02/14 07:58:00;;;;;;;;;;;5.20;1.00;;;;;;5064708;28;19965;-85
2024/02/14 08:00:27;;;;;;;;;;;5.00;1.00;;;;;;5064428;28;19948;-85
2024/02/14 08:02:55;;;;;;;;;;;4.90;1.00;;;;;;5064240;28;20034;-85
2024/02/14 08:05:21;;;;;;;;;;;5.30;1.00;;;;;;5064347;28;20386;-84
2024/02/14 08:07:48;;;;;;;;;;;5.10;1.00;;;;;;5062911;28;20083;-86
2024/02/14 08:10:14;;;;;;;;;;;5.10;1.00;;;;;;5062216;28;19979;-84
2024/02/14 08:12:42;;;;;;;;;;;;;;;;;;5062536;28;19961;-82
2024/02/14 08:15:09;;;;;;;;;;;5.00;10.00;;;;;;5062025;28;19980;-83
2024/02/14 08:17:36;;;;;;;;;;;5.30;99.90;;;;;;5062689;28;20054;-86
2024/02/14 08:20:04;;;;;;;;;;;5.50;49.90;;;;;;5063056;28;19974;-84
2024/02/14 08:22:32;;;;;;;;;;;5.40;99.90;;;;;;5061399;28;20015;-85
2024/02/14 08:25:00;;;;;;;;;;;5.30;99.90;;;;;;5064496;28;19951;-84
2024/02/14 08:27:28;;;;;;;;;;;5.40;99.90;;;;;;5066315;28;19955;-85
2024/02/14 08:29:55;;;;;;;;;;;5.30;99.90;;;;;;5065479;28;19943;-84
2024/02/14 08:32:22;;;;;;;;;;;5.30;99.90;;;;;;5072673;28;19946;-85
2024/02/14 08:34:49;;;;;;;;;;;5.40;1.00;;;;;;5065640;28;19982;-84
2024/02/14 08:37:17;;;;;;;;;;;;;;;;;;5076123;28;19966;-83
2024/02/14 08:39:45;;;;;;;;;;;;;;;;;;5073468;28;20006;-84
2024/02/14 08:42:13;;;;;;;;;;;5.30;1.00;;;;;;5064600;28;19992;-85
2024/02/14 08:44:40;;;;;;;;;;;5.50;99.90;;;;;;5068920;28;19990;-83
2024/02/14 08:47:07;;;;;;;;;;;;;;;;;;5076698;28;19973;-83
2024/02/14 08:49:35;;;;;;;;;;;;;;;;;;5075408;28;19941;-84
2024/02/14 08:52:02;;;;;;;;;;;5.90;1.00;;;;;;5066330;28;19920;-86
2024/02/14 08:54:29;;;;;;;;;;;5.70;99.90;;;;;;5065451;28;19944;-85
2024/02/14 08:56:58;;;;;;;;;;;5.80;99.90;;;;;;5064166;28;19960;-86
2024/02/14 08:59:26;;;;;;;;;;;5.60;1.00;;;;;;5071712;28;20001;-84
2024/02/14 09:01:53;;;;;;;;;;;5.80;99.90;;;;;;5078178;28;19991;-85
2024/02/14 09:04:22;;;;;;;;;;;5.90;99.90;;;;;;5066549;28;19949;-85
2024/02/14 09:06:49;;;;;;;;;;;5.90;99.90;;;;;;5060812;28;19964;-87
2024/02/14 09:09:16;;;;;;;;;;;5.90;1.00;;;;;;5061935;28;19941;-85
2024/02/14 09:11:44;;;;;;;;;;;;;;;;;;5057517;28;20375;-85
2024/02/14 09:14:11;;;;;;;;;;;6.10;1.00;;;;;;5057085;28;19951;-84
2024/02/14 09:16:39;;;;;;;;;;;;;;;;;;5059340;28;19931;-85
2024/02/14 09:19:07;;;;;;;;;;;;;;;;;;5059126;28;20404;-85
2024/02/14 09:21:36;;;;;;;;;;;6.00;1.00;;;;;;5059880;28;19943;-85
2024/02/14 09:24:03;;;;;;;;;;;6.10;99.90;;;;;;5060060;28;19949;-84
2024/02/14 09:26:31;;;;;;;;;;;;;;;;;;5058905;28;20059;-84
2024/02/14 09:29:02;;;;;;;;;;;6.20;99.90;;;;;;5060177;28;19990;-83
2024/02/14 09:31:28;;;;;;;;;;;6.20;99.90;;;;;;5059513;28;20405;-85
2024/02/14 09:33:57;;;;;;;;;;;;;;;;;;5059543;28;19953;-85
2024/02/14 09:36:25;;;;;;;;;;;;;;;;;;5059839;28;20462;-85
2024/02/14 09:38:52;;;;;;;;;;;;;;;;;;5059544;28;20005;-85
2024/02/14 09:41:23;;;;;;;;;;;6.30;1.00;;;;;;5060246;28;20029;-85
2024/02/14 09:43:50;;;;;;;;;;;6.40;22.40;;;;;;5060184;28;19943;-85
2024/02/14 09:46:18;;;;;;;;;;;6.60;99.90;;;;;;5059911;28;19960;-85
2024/02/14 09:48:46;;;;;;;;;;;6.30;99.90;;;;;;5060994;28;19978;-83
2024/02/14 09:51:13;;;;;;;;;;;6.20;99.90;;;;;;5062104;28;19960;-85
2024/02/14 09:53:43;;;;;;;;;;;6.20;99.90;;;;;;5061524;28;19952;-84
2024/02/14 09:56:09;;;;;;;;;;;6.30;99.90;;;;;;5065953;28;19945;-85
2024/02/14 09:58:37;;;;;;;;;;;6.30;1.00;;;;;;5078711;28;19935;-82
2024/02/14 10:01:06;;;;;;;;;;;;;;;;;;5078717;28;19946;-85
2024/02/14 10:03:35;;;;;;;;;;;6.20;1.00;;;;;;5066474;28;19995;-85
2024/02/14 10:06:04;;;;;;;;;;;;;;;;;;5058116;28;19962;-84
2024/02/14 10:08:31;;;;;;;;;;;;;;;;;;5059384;28;19944;-84
2024/02/14 10:10:59;;;;;;;;;;;;;;;;;;5060291;28;19943;-85
2024/02/14 10:13:27;;;;;;;;;;;;;;;;;;5065177;28;19939;-85
2024/02/14 10:15:54;;;;;;;;;;;;;;;;;;5060526;28;19945;-85
2024/02/14 10:18:23;;;;;;;;;;;;;;;;;;5068409;28;19921;-85
2024/02/14 10:20:57;;;;;;;;;;;6.50;1.00;;;;;;5066968;28;19952;-85
2024/02/14 10:23:23;;;;;;;;;;;6.40;1.00;;;;;;5060930;28;20003;-85
2024/02/14 10:25:51;;;;;;;;;;;6.50;1.00;;;;;;5063538;28;20000;-84
2024/02/14 10:28:18;;;;;;;;;;;6.60;1.00;;;;;;5060513;28;19945;-85
2024/02/14 10:30:46;;;;;;;;;;;6.60;1.00;;;;;;5059394;28;19939;-84
2024/02/14 10:33:13;;;;;;;;;;;6.70;1.00;;;;;;5061901;28;19945;-85
2024/02/14 10:35:41;;;;;;;;;;;6.80;1.00;;;;;;5059279;28;19986;-84
2024/02/14 10:38:09;;;;;;;;;;;6.90;1.00;;;;;;5060580;28;19977;-85
2024/02/14 10:40:38;;;;;;;;;;;6.80;1.00;;;;;;5060536;28;20000;-87
2024/02/14 10:43:05;;;;;;;;;;;6.90;1.00;;;;;;5060592;28;19965;-84
2024/02/14 10:45:32;;;;;;;;;;;6.70;1.00;;;;;;5059512;28;19981;-86
2024/02/14 10:48:01;;;;;;;;;;;6.80;1.00;;;;;;5062556;28;20498;-86
2024/02/14 10:50:29;;;;;;;;;;;6.80;1.00;;;;;;5062663;28;20058;-85
2024/02/14 10:52:58;;;;;;;;;;;6.80;1.00;;;;;;5062680;28;19945;-85
2024/02/14 10:55:26;;;;;;;;;;;;;;;;;;5062662;28;20294;-86
2024/02/14 10:57:55;;;;;;;;;;;6.80;1.00;;;;;;5062966;28;19962;-88
2024/02/14 11:00:21;;;;;;;;;;;6.80;1.00;;;;;;5076905;28;19939;-85
2024/02/14 11:02:49;;;;;;;;;;;6.80;1.00;;;;;;5081476;28;19927;-84
2024/02/14 11:05:16;;;;;;;;;;;;;;;;;;5081353;28;19956;-85
2024/02/14 11:07:44;;;;;;;;;;;;;;;;;;5069973;28;20064;-85
2024/02/14 11:10:12;;;;;;;;;;;;;;;;;;5062460;28;19942;-85
2024/02/14 11:12:39;;;;;;;;;;;;;;;;;;5062205;28;20035;-86
2024/02/14 11:15:06;;;;;;;;;;;;;;;;;;5062124;28;19940;-86
2024/02/14 11:17:33;;;;;;;;;;;;;;;;;;5064193;28;20391;-85
2024/02/14 11:20:02;;;;;;;;;;;;;;;;;;5071371;28;19977;-86
2024/02/14 11:22:29;;;;;;;;;;;;;;;;;;5073542;28;19940;-85
2024/02/14 11:24:57;;;;;;;;;;;;;;;;;;5074972;28;19943;-86
2024/02/14 11:27:25;;;;;;;;;;;7.40;1.00;;;;;;5070409;28;20317;-85
2024/02/14 11:29:52;;;;;;;;;;;7.50;1.00;;;;;;5064903;28;20323;-84
2024/02/14 11:32:19;;;;;;;;;;;7.40;1.00;;;;;;5062436;28;19951;-85
2024/02/14 11:34:53;;;;;;;;;;;7.40;1.00;;;;;;5062552;28;19990;-85
2024/02/14 11:37:23;;;;;;;;;;;7.40;1.00;;;;;;5063113;28;20009;-83
2024/02/14 11:39:50;;;;;;;;;;;7.30;1.00;;;;;;5062479;28;20013;-85
2024/02/14 11:42:16;;;;;;;;;;;7.40;1.00;;;;;;5061706;28;20055;-86
2024/02/14 11:44:46;;;;;;;;;;;7.20;1.00;;;;;;5062742;28;19950;-85
2024/02/14 11:47:13;;;;;;;;;;;7.40;1.00;;;;;;5063731;28;19986;-85
2024/02/14 11:49:40;;;;;;;;;;;7.40;16.70;;;;;;5063324;28;19953;-84
2024/02/14 11:52:08;;;;;;;;;;;;;;;;;;5063915;28;19940;-85
2024/02/14 11:54:35;;;;;;;;;;;;;;;;;;5061243;28;19953;-85
2024/02/14 11:57:02;;;;;;;;;;;;;;;;;;5060894;28;20029;-85
2024/02/14 11:59:29;;;;;;;;;;;;;;;;;;5062272;28;20306;-84
2024/02/14 12:01:58;;;;;;;;;;;7.40;5.80;;;;;;5062199;28;19942;-85
2024/02/14 12:04:25;;;;;;;;;;;;;;;;;;5061880;28;19941;-85
2024/02/14 12:06:52;;;;;;;;;;;7.60;29.00;;;;;;5073381;28;19993;-84
2024/02/14 12:09:22;;;;;;;;;;;7.60;43.00;;;;;;5067289;28;20010;-84
2024/02/14 12:11:50;;;;;;;;;;;7.50;60.90;;;;;;5065110;28;20006;-84
2024/02/14 12:14:18;;;;;;;;;;;7.50;84.70;;;;;;5065191;28;19927;-84
2024/02/14 12:16:45;;;;;;;;;;;7.50;86.90;;;;;;5063992;28;19961;-84
2024/02/14 12:19:16;;;;;;;;;;;7.70;99.10;;;;;;5071077;28;19934;-83
2024/02/14 12:21:43;;;;;;;;;;;7.60;99.90;;;;;;5080631;28;19999;-83
2024/02/14 12:24:10;;;;;;;;;;;7.50;99.90;;;;;;5068007;28;20412;-86
2024/02/14 12:26:37;;;;;;;;;;;7.60;99.90;;;;;;5062254;28;19967;-86
2024/02/14 12:29:04;;;;;;;;;;;7.70;99.90;;;;;;5062787;28;19948;-85
2024/02/14 12:31:31;;;;;;;;;;;7.60;99.90;;;;;;5062538;28;19946;-84
2024/02/14 12:33:59;;;;;;;;;;;7.60;99.90;;;;;;5063092;28;19942;-87
2024/02/14 12:36:28;;;;;;;;;;;7.70;99.90;;;;;;5062559;28;20014;-85
2024/02/14 12:38:55;;;;;;;;;;;7.70;99.90;;;;;;5062855;28;19943;-85
2024/02/14 12:41:23;;;;;;;;;;;7.70;99.90;;;;;;5062112;28;19939;-85
2024/02/14 12:43:50;;;;;;;;;;;7.70;99.90;;;;;;5063847;28;20401;-86
2024/02/14 12:46:16;;;;;;;;;;;7.80;99.90;;;;;;5061558;28;19967;-86
2024/02/14 12:48:45;;;;;;;;;;;;;;;;;;5062208;28;19989;-85
2024/02/14 12:51:13;;;;;;;;;;;;;;;;;;5072925;28;19937;-84
2024/02/14 12:53:41;;;;;;;;;;;7.80;99.90;;;;;;5079450;28;19923;-83
2024/02/14 12:56:09;;;;;;;;;;;7.90;99.90;;;;;;5075576;28;20003;-85
2024/02/14 12:58:37;;;;;;;;;;;;;;;;;;5064579;28;19996;-86
2024/02/14 13:01:06;;;;;;;;;;;;;;;;;;5063383;28;19972;-86
2024/02/14 13:03:33;;;;;;;;;;;7.90;99.90;;;;;;5063220;28;19948;-85
2024/02/14 13:06:00;;;;;;;;;;;7.90;99.90;;;;;;5063369;28;20012;-85
2024/02/14 13:08:26;;;;;;;;;;;7.90;99.90;;;;;;5063846;28;19991;-85
2024/02/14 13:10:54;;;;;;;;;;;8.00;99.90;;;;;;5062098;28;20431;-86
2024/02/14 13:13:23;;;;;;;;;;;8.00;99.90;;;;;;5062706;28;19947;-85
2024/02/14 13:15:51;;;;;;;;;;;;;;;;;;5062839;28;19937;-85
2024/02/14 13:18:19;;;;;;;;;;;;;;;;;;5065352;28;20035;-85
2024/02/14 13:20:46;;;;;;;;;;;;;;;;;;5078310;28;19942;-85
2024/02/14 13:23:14;;;;;;;;;;;;;;;;;;5078771;28;19983;-84
2024/02/14 13:25:42;;;;;;;;;;;;;;;;;;5078125;28;19943;-83
2024/02/14 13:28:09;;;;;;;;;;;;;;;;;;5068866;28;20056;-84
2024/02/14 13:30:36;;;;;;;;;;;;;;;;;;5067506;28;20014;-84
2024/02/14 13:33:03;;;;;;;;;;;;;;;;;;5070923;28;20125;-84
2024/02/14 13:35:31;;;;;;;;;;;;;;;;;;5064276;28;20399;-84
2024/02/14 13:37:58;;;;;;;;;;;;;;;;;;5059613;28;19967;-83
2024/02/14 13:40:25;;;;;;;;;;;;;;;;;;5060232;28;19995;-83
2024/02/14 13:42:52;;;;;;;;;;;;;;;;;;5059430;28;20460;-84
2024/02/14 13:45:20;;;;;;;;;;;;;;;;;;5059720;28;19975;-84
2024/02/14 13:47:47;;;;;;;;;;;;;;;;;;5059537;28;20012;-85
2024/02/14 13:50:15;;;;;;;;;;;;;;;;;;5060531;28;20461;-85
2024/02/14 13:52:42;;;;;;;;;;;;;;;;;;5062735;28;19946;-84
2024/02/14 13:55:09;;;;;;;;;;;;;;;;;;5072511;28;19995;-84
2024/02/14 13:57:36;;;;;;;;;;;;;;;;;;5062756;28;19962;-85
2024/02/14 14:00:03;;;;;;;;;;;;;;;;;;5060729;28;19943;-85
2024/02/14 14:02:30;;;;;;;;;;;;;;;;;;5060883;28;20327;-84
2024/02/14 14:04:57;;;;;;;;;;;;;;;;;;5060629;28;20462;-85
2024/02/14 14:07:24;;;;;;;;;;;;;;;;;;5059663;28;19999;-85
2024/02/14 14:09:51;;;;;;;;;;;;;;;;;;5060943;28;19944;-85
2024/02/14 14:12:18;;;;;;;;;;;;;;;;;;5060578;28;19992;-85
2024/02/14 14:14:45;;;;;;;;;;;;;;;;;;5060093;28;20094;-85
2024/02/14 14:17:12;;;;;;;;;;;;;;;;;;5060435;28;19960;-85
2024/02/14 14:19:39;;;;;;;;;;;;;;;;;;5069123;28;20463;-84
2024/02/14 14:22:06;;;;;;;;;;;;;;;;;;5064486;28;19951;-85
2024/02/14 14:24:33;;;;;;;;;;;;;;;;;;5061936;28;20028;-85
2024/02/14 14:27:00;;;;;;;;;;;;;;;;;;5060110;28;20432;-85
2024/02/14 14:29:28;;;;;;;;;;;;;;;;;;5060805;28;19947;-84
2024/02/14 14:31:55;;;;;;;;;;;;;;;;;;5061214;28;19944;-84
2024/02/14 14:34:22;;;;;;;;;;;;;;;;;;5061643;28;19939;-84
2024/02/14 14:36:48;;;;;;;;;;;;;;;;;;5061308;28;19962;-84
2024/02/14 14:39:15;;;;;;;;;;;;;;;;;;5060078;28;19988;-86
2024/02/14 14:41:43;;;;;;;;;;;;;;;;;;5060132;28;19946;-85
2024/02/14 14:44:11;;;;;;;;;;;;;;;;;;5060329;28;19944;-85
2024/02/14 14:46:41;;;;;;;;;;;;;;;;;;5059911;28;19972;-87
2024/02/14 14:49:08;;;;;;;;;;;;;;;;;;5060238;28;19947;-86
2024/02/14 14:51:35;;;;;;;;;;;;;;;;;;5059626;28;20003;-84
2024/02/14 14:54:02;;;;;;;;;;;;;;;;;;5061058;28;19950;-85
2024/02/14 14:56:29;;;;;;;;;;;;;;;;;;5060366;28;20023;-86
2024/02/14 14:58:59;;;;;;;;;;;;;;;;;;5061024;28;19945;-86
2024/02/14 15:01:26;;;;;;;;;;;;;;;;;;5072753;28;19963;-86
2024/02/14 15:03:53;;;;;;;;;;;;;;;;;;5060588;28;20006;-85
2024/02/14 15:06:20;;;;;;;;;;;;;;;;;;5065200;28;19979;-84
2024/02/14 15:08:48;;;;;;;;;;;;;;;;;;5072985;28;19916;-84
2024/02/14 15:11:16;;;;;;;;;;;;;;;;;;5062920;28;19945;-86
2024/02/14 15:13:44;;;;;;;;;;;;;;;;;;5060118;28;19943;-86
2024/02/14 15:16:12;;;;;;;;;;;;;;;;;;5060707;28;19995;-86
2024/02/14 15:18:40;;;;;;;;;;;;;;;;;;5060481;28;19948;-84
2024/02/14 15:21:07;;;;;;;;;;;;;;;;;;5060317;28;19946;-85
2024/02/14 15:23:34;;;;;;;;;;;;;;;;;;5061293;28;19945;-87
2024/02/14 15:26:03;;;;;;;;;;;;;;;;;;5059803;28;20052;-86
2024/02/14 15:28:30;;;;;;;;;;;;;;;;;;5060712;28;19960;-86
2024/02/14 15:33:42;;;;;;;;;;;;;;;;;;5064405;28;19934;-86
2024/02/14 15:36:09;;;;;;;;;;;;;;;;;;5066341;28;20326;-84
2024/02/14 15:38:36;;;;;;;;;;;;;;;;;;5078365;28;19972;-82
2024/02/14 15:41:05;;;;;;;;;;;;;;;;;;5078251;28;19999;-83
2024/02/14 15:43:33;;;;;;;;;;;;;;;;;;5076656;28;19977;-86
2024/02/14 15:48:40;;;;;;;;;;;;;;;;;;5052838;28;19957;-88
2024/02/14 15:51:07;;;;;;;;;;;;;;;;;;5060568;28;19986;-86
2024/02/14 15:53:37;;;;;;;;;;;;;;;;;;5056797;28;19951;-86
2024/02/14 15:56:08;;;;;;;;;;;;;;;;;;5052571;28;19936;-87
2024/02/14 15:58:36;;;;;;;;;;;;;;;;;;5056847;28;19964;-87
2024/02/14 16:01:03;;;;;;;;;;;;;;;;;;5051316;28;20042;-87
2024/02/14 16:03:30;;;;;;;;;;;;;;;;;;5043879;28;19934;-87
2024/02/14 16:05:57;;;;;;;;;;;;;;;;;;5043454;28;19947;-86
2024/02/14 16:08:24;;;;;;;;;;;;;;;;;;5043181;28;20315;-87
2024/02/14 16:10:53;;;;;;;;;;;;;;;;;;5043294;28;19941;-87
2024/02/14 16:13:20;;;;;;;;;;;;;;;;;;5042486;28;19941;-87
2024/02/14 16:15:47;;;;;;;;;;;;;;;;;;5042093;28;19941;-87
2024/02/14 16:18:14;;;;;;;;;;;;;;;;;;5041224;28;20341;-87
2024/02/14 16:20:41;;;;;;;;;;;;;;;;;;5040568;28;19939;-88
2024/02/14 16:23:09;;;;;;;;;;;;;;;;;;5041462;28;19943;-88
2024/02/14 16:25:38;;;;;;;;;;;;;;;;;;5042971;28;19939;-87
2024/02/14 16:28:05;;;;;;;;;;;;;;;;;;5055825;28;19958;-87
2024/02/14 16:30:32;;;;;;;;;;;;;;;;;;5059627;28;19928;-87
2024/02/14 16:33:00;;;;;;;;;;;;;;;;;;5046852;28;19962;-88
2024/02/14 16:35:30;;;;;;;;;;;;;;;;;;5042751;28;19951;-87
2024/02/14 16:37:57;;;;;;;;;;;;;;;;;;5042788;28;19979;-87
2024/02/14 16:40:24;;;;;;;;;;;;;;;;;;5042268;28;19951;-88
2024/02/14 16:42:53;;;;;;;;;;;;;;;;;;5050301;28;20015;-88
2024/02/14 16:45:21;;;;;;;;;;;;;;;;;;5040270;28;19962;-88
2024/02/14 16:47:51;;;;;;;;;;;;;;;;;;5040241;28;19966;-87
2024/02/14 16:50:18;;;;;;;;;;;;;;;;;;5041438;28;19944;-87
2024/02/14 16:52:45;;;;;;;;;;;;;;;;;;5055222;28;19964;-87
2024/02/14 16:55:13;;;;;;;;;;;;;;;;;;5056724;28;19935;-87
2024/02/14 16:57:40;;;;;;;;;;;;;;;;;;5047766;28;19964;-88
2024/02/14 17:00:07;;;;;;;;;;;;;;;;;;5041392;28;20421;-88
2024/02/14 17:02:34;;;;;;;;;;;;;;;;;;5040418;28;19945;-87
2024/02/14 17:05:01;;;;;;;;;;;;;;;;;;5040848;28;19942;-86
2024/02/14 17:07:28;;;;;;;;;;;;;;;;;;5042103;28;19998;-87
2024/02/14 17:09:58;;;;;;;;;;;;;;;;;;5041968;28;19943;-87
2024/02/14 17:12:25;;;;;;;;;;;;;;;;;;5042600;28;19944;-88
2024/02/14 17:14:53;;;;;;;;;;;;;;;;;;5047827;28;19993;-88
2024/02/14 17:17:21;;;;;;;;;;;;;;;;;;5045850;28;20008;-87
2024/02/14 17:19:48;;;;;;;;;;;;;;;;;;5044250;28;19962;-87
2024/02/14 17:22:15;;;;;;;;;;;;;;;;;;5042152;28;20305;-87
2024/02/14 17:24:44;;;;;;;;;;;;;;;;;;5043684;28;20370;-88
2024/02/14 17:27:12;;;;;;;;;;;;;;;;;;5041639;28;19963;-88
2024/02/14 17:29:39;;;;;;;;;;;;;;;;;;5042034;28;20307;-88
2024/02/14 17:32:06;;;;;;;;;;;;;;;;;;5042362;28;19953;-88
2024/02/14 17:34:33;;;;;;;;;;;;;;;;;;5042111;28;19941;-87
2024/02/14 17:37:00;;;;;;;;;;;;;;;;;;5041717;28;19954;-87
2024/02/14 17:39:28;;;;;;;;;;;;;;;;;;5042141;28;19941;-87
2024/02/14 17:41:55;;;;;;;;;;;;;;;;;;5055457;28;19924;-88
2024/02/14 17:44:22;;;;;;;;;;;;;;;;;;5059130;28;19980;-89
2024/02/14 17:46:50;;;;;;;;;;;;;;;;;;5058762;28;19962;-88
2024/02/14 17:49:18;;;;;;;;;;;;;;;;;;5057564;28;19979;-88
2024/02/14 17:51:47;;;;;;;;;;;;;;;;;;5056740;28;19948;-86
2024/02/14 17:54:14;;;;;;;;;;;;;;;;;;5058459;28;19936;-87
2024/02/14 17:56:41;;;;;;;;;;;;;;;;;;5048973;28;19963;-87
2024/02/14 17:59:08;;;;;;;;;;;;;;;;;;5052634;28;19942;-87
2024/02/14 18:01:36;;;;;;;;;;;;;;;;;;5050482;28;19982;-88
2024/02/14 18:04:04;;;;;;;;;;;;;;;;;;5041853;28;19942;-88
2024/02/14 18:06:32;;;;;;;;;;;;;;;;;;5041372;28;19957;-88
2024/02/14 18:08:59;;;;;;;;;;;;;;;;;;5041268;28;20433;-87
2024/02/14 18:11:26;;;;;;;;;;;;;;;;;;5040539;28;19959;-87
2024/02/14 18:13:57;;;;;;;;;;;;;;;;;;5042531;28;19966;-87
2024/02/14 18:16:24;;;;;;;;;;;;;;;;;;5045425;28;19955;-87
2024/02/14 18:18:51;;;;;;;;;;;;;;;;;;5047040;28;19920;-87
2024/02/14 18:21:19;;;;;;;;;;;;;;;;;;5059070;28;19951;-88
2024/02/14 18:23:46;;;;;;;;;;;;;;;;;;5058658;28;19909;-88
2024/02/14 18:26:13;;;;;;;;;;;;;;;;;;5058814;28;19945;-89
2024/02/14 18:28:40;;;;;;;;;;;;;;;;;;5056761;28;19912;-87
2024/02/14 18:31:12;;;;;;;;;;;;;;;;;;5040661;28;19936;-87
2024/02/14 18:33:43;;;;;;;;;;;;;;;;;;5040149;28;19927;-87
2024/02/14 18:36:10;;;;;;;;;;;;;;;;;;5039280;28;19961;-88
2024/02/14 18:38:40;;;;;;;;;;;;;;;;;;5039968;28;19939;-88
2024/02/14 18:41:08;;;;;;;;;;;;;;;;;;5045091;28;19968;-88
2024/02/14 18:43:35;;;;;;;;;;;;;;;;;;5054402;28;19942;-88
2024/02/14 18:46:02;;;;;;;;;;;;;;;;;;5044299;28;19936;-88
2024/02/14 18:48:29;;;;;;;;;;;;;;;;;;5053358;28;19982;-87
2024/02/14 18:50:58;;;;;;;;;;;;;;;;;;5055139;28;19941;-88
2024/02/14 18:53:26;;;;;;;;;;;;;;;;;;5057035;28;19943;-88
2024/02/14 18:55:55;;;;;;;;;;;;;;;;;;5053478;28;19936;-87
2024/02/14 18:58:22;;;;;;;;;;;;;;;;;;5043740;28;19957;-87
2024/02/14 19:00:53;;;;;;;;;;;;;;;;;;5042328;28;19936;-88
2024/02/14 19:03:20;;;;;;;;;;;;;;;;;;5041660;28;19928;-88
2024/02/14 19:05:47;;;;;;;;;;;;;;;;;;5040696;28;19987;-87
2024/02/14 19:08:14;;;;;;;;;;;;;;;;;;5043349;28;20359;-87
2024/02/14 19:10:41;;;;;;;;;;;;;;;;;;5044972;28;20009;-87
2024/02/14 19:13:09;;;;;;;;;;;;;;;;;;5044429;28;19959;-88
2024/02/14 19:15:36;;;;;;;;;;;;;;;;;;5043880;28;19949;-88
2024/02/14 19:18:05;;;;;;;;;;;;;;;;;;5045638;28;19942;-88
2024/02/14 19:20:36;;;;;;;;;;;9.70;1.00;;;;;;5051217;28;19948;-87
2024/02/14 19:23:06;;;;;;;;;;;9.80;1.00;;;;;;5049246;28;19951;-88
2024/02/14 19:25:33;;;;;;;;;;;7.90;1.00;;;;;;5045088;28;19944;-88
2024/02/14 19:28:02;;;;;;;;;;;9.50;1.00;;;;;;5044194;28;19960;-88
2024/02/14 19:30:31;;;;;;;;;;;9.50;1.00;;;;;;5060234;28;19936;-87
2024/02/14 19:32:58;;;;;;;;;;;9.50;1.00;;;;;;5056036;28;19920;-87
2024/02/14 19:35:25;;;;;;;;;;;9.40;1.00;;;;;;5044303;28;19965;-87
2024/02/14 19:37:55;;;;;;;;;;;9.50;1.00;;;;;;5043060;28;19953;-87
2024/02/14 19:40:21;;;;;;;;;;;9.50;1.00;;;;;;5055346;28;19921;-87
2024/02/14 19:42:48;;;;;;;;;;;9.30;1.00;;;;;;5061407;28;19991;-88
2024/02/14 19:45:15;;;;;;;;;;;9.50;1.00;;;;;;5059704;28;19940;-87
2024/02/14 19:47:42;;;;;;;;;;;9.60;1.00;;;;;;5047590;28;19959;-88